sensor_id;sensor_type;location;lat;lon;timestamp;temperature;humidity
20858;DHT22;10589;53.636;10.012;2023-07-22T03:45:33;12.50;99.90
20858;DHT22;10589;53.636;10.012;2023-07-22T03:48:00;12.50;99.90
20858;DHT22;10589;53.636;10.012;2023-07-22T03:50:26;12.60;99.90
20858;DHT22;10589;53.636;10.012;2023-07-22T03:52:52;12.50;99.90
20858;DHT22;10589;53.636;10.012;2023-07-22T03:55:18;12.50;99.90
20858;DHT22;10589;53.636;10.012;2023-07-22T03:57:45;12.50;99.90
20858;DHT22;10589;53.636;10.012;2023-07-22T04:00:11;12.50;99.90
20858;DHT22;10589;53.636;10.012;2023-07-22T04:02:37;12.50;99.90
20858;DHT22;10589;53.636;10.012;2023-07-22T04:05:03;12.60;99.90
20858;DHT22;10589;53.636;10.012;2023-07-22T04:07:28;12.70;99.90
20858;DHT22;10589;53.636;10.012;2023-07-22T04:09:54;12.80;99.90
20858;DHT22;10589;53.636;10.012;2023-07-22T04:12:19;12.80;99.90
20858;DHT22;10589;53.636;10.012;2023-07-22T04:14:45;12.90;99.90
20858;DHT22;10589;53.636;10.012;2023-07-22T04:17:11;13.00;99.90
20858;DHT22;10589;53.636;10.012;2023-07-22T04:19:36;13.00;99.90
20858;DHT22;10589;53.636;10.012;2023-07-22T04:22:02;13.00;99.90
20858;DHT22;10589;53.636;10.012;2023-07-22T04:24:32;12.90;99.90
20858;DHT22;10589;53.636;10.012;2023-07-22T04:26:59;12.90;99.90
20858;DHT22;10589;53.636;10.012;2023-07-22T04:29:24;12.90;99.90
20858;DHT22;10589;53.636;10.012;2023-07-22T04:31:50;12.90;99.90
20858;DHT22;10589;53.636;10.012;2023-07-22T04:34:15;12.90;99.90
20858;DHT22;10589;53.636;10.012;2023-07-22T04:36:41;13.10;99.90
20858;DHT22;10589;53.636;10.012;2023-07-22T04:39:07;13.30;99.90
20858;DHT22;10589;53.636;10.012;2023-07-22T04:41:33;13.50;99.90
20858;DHT22;10589;53.636;10.012;2023-07-22T04:43:58;13.60;99.90
20858;DHT22;10589;53.636;10.012;2023-07-22T04:46:25;13.60;99.90
20858;DHT22;10589;53.636;10.012;2023-07-22T04:48:56;13.50;99.90
20858;DHT22;10589;53.636;10.012;2023-07-22T04:51:23;13.50;99.90
20858;DHT22;10589;53.636;10.012;2023-07-22T04:53:49;13.50;99.90
20858;DHT22;10589;53.636;10.012;2023-07-22T04:56:15;13.50;99.90
20858;DHT22;10589;53.636;10.012;2023-07-22T04:58:41;13.60;99.90
20858;DHT22;10589;53.636;10.012;2023-07-22T05:01:07;13.70;99.90
20858;DHT22;10589;53.636;10.012;2023-07-22T05:03:34;13.80;99.90
20858;DHT22;10589;53.636;10.012;2023-07-22T05:05:59;13.80;99.90
20858;DHT22;10589;53.636;10.012;2023-07-22T05:08:25;13.80;99.90
20858;DHT22;10589;53.636;10.012;2023-07-22T05:10:50;13.90;99.90
20858;DHT22;10589;53.636;10.012;2023-07-22T05:13:16;14.00;99.90
20858;DHT22;10589;53.636;10.012;2023-07-22T05:15:42;14.00;99.90
20858;DHT22;10589;53.636;10.012;2023-07-22T05:18:08;14.10;99.90
20858;DHT22;10589;53.636;10.012;2023-07-22T05:20:33;14.20;99.90
20858;DHT22;10589;53.636;10.012;2023-07-22T05:22:59;14.20;99.90
20858;DHT22;10589;53.636;10.012;2023-07-22T05:25:24;14.20;99.90
20858;DHT22;10589;53.636;10.012;2023-07-22T05:27:50;14.20;99.90
20858;DHT22;10589;53.636;10.012;2023-07-22T05:30:15;14.20;99.90
20858;DHT22;10589;53.636;10.012;2023-07-22T05:32:41;14.30;99.90
20858;DHT22;10589;53.636;10.012;2023-07-22T05:35:07;14.30;99.90
20858;DHT22;10589;53.636;10.012;2023-07-22T05:37:33;14.30;99.90
20858;DHT22;10589;53.636;10.012;2023-07-22T05:39:59;14.30;99.90
20858;DHT22;10589;53.636;10.012;2023-07-22T05:42:25;14.40;99.90
20858;DHT22;10589;53.636;10.012;2023-07-22T05:44:50;14.30;99.90
20858;DHT22;10589;53.636;10.012;2023-07-22T05:47:16;14.20;99.90
20858;DHT22;10589;53.636;10.012;2023-07-22T05:49:41;14.20;99.90
20858;DHT22;10589;53.636;10.012;2023-07-22T05:52:07;14.20;99.90
20858;DHT22;10589;53.636;10.012;2023-07-22T05:54:33;14.20;99.90
20858;DHT22;10589;53.636;10.012;2023-07-22T05:56:58;14.20;99.90
20858;DHT22;10589;53.636;10.012;2023-07-22T05:59:24;14.30;99.90
20858;DHT22;10589;53.636;10.012;2023-07-22T06:01:50;14.30;99.90
20858;DHT22;10589;53.636;10.012;2023-07-22T06:04:16;14.30;99.90
20858;DHT22;10589;53.636;10.012;2023-07-22T06:06:42;14.30;99.90
20858;DHT22;10589;53.636;10.012;2023-07-22T06:09:07;14.50;99.90
20858;DHT22;10589;53.636;10.012;2023-07-22T06:11:33;14.50;99.90
20858;DHT22;10589;53.636;10.012;2023-07-22T06:13:58;14.50;99.90
20858;DHT22;10589;53.636;10.012;2023-07-22T06:16:24;14.60;99.90
20858;DHT22;10589;53.636;10.012;2023-07-22T06:18:50;14.70;99.90
20858;DHT22;10589;53.636;10.012;2023-07-22T06:21:15;14.90;99.90
20858;DHT22;10589;53.636;10.012;2023-07-22T06:23:41;14.90;99.90
20858;DHT22;10589;53.636;10.012;2023-07-22T06:26:07;14.80;99.90
20858;DHT22;10589;53.636;10.012;2023-07-22T06:28:32;15.00;99.90
20858;DHT22;10589;53.636;10.012;2023-07-22T06:30:58;15.20;99.90
20858;DHT22;10589;53.636;10.012;2023-07-22T06:33:23;15.30;99.90
20858;DHT22;10589;53.636;10.012;2023-07-22T06:35:49;15.30;99.90
20858;DHT22;10589;53.636;10.012;2023-07-22T06:38:14;15.40;99.90
20858;DHT22;10589;53.636;10.012;2023-07-22T06:40:40;15.40;99.90
20858;DHT22;10589;53.636;10.012;2023-07-22T06:43:06;15.50;99.90
20858;DHT22;10589;53.636;10.012;2023-07-22T06:45:32;15.60;99.90
20858;DHT22;10589;53.636;10.012;2023-07-22T06:47:58;15.70;99.90
20858;DHT22;10589;53.636;10.012;2023-07-22T06:50:24;15.70;99.90
20858;DHT22;10589;53.636;10.012;2023-07-22T06:52:50;15.80;99.90
20858;DHT22;10589;53.636;10.012;2023-07-22T06:55:15;15.80;99.90
20858;DHT22;10589;53.636;10.012;2023-07-22T06:57:41;15.80;99.90
20858;DHT22;10589;53.636;10.012;2023-07-22T07:00:07;15.80;99.90
20858;DHT22;10589;53.636;10.012;2023-07-22T07:02:35;15.90;99.90
20858;DHT22;10589;53.636;10.012;2023-07-22T07:05:01;16.00;99.90
20858;DHT22;10589;53.636;10.012;2023-07-22T07:07:27;16.00;99.90
20858;DHT22;10589;53.636;10.012;2023-07-22T07:09:52;16.00;99.90
20858;DHT22;10589;53.636;10.012;2023-07-22T07:12:18;16.20;99.90
20858;DHT22;10589;53.636;10.012;2023-07-22T07:14:43;16.30;99.90
20858;DHT22;10589;53.636;10.012;2023-07-22T07:17:09;16.40;99.90
20858;DHT22;10589;53.636;10.012;2023-07-22T07:19:35;16.40;99.90
20858;DHT22;10589;53.636;10.012;2023-07-22T07:22:00;16.60;99.90
20858;DHT22;10589;53.636;10.012;2023-07-22T07:24:26;16.60;99.90
20858;DHT22;10589;53.636;10.012;2023-07-22T07:26:52;16.50;99.90
20858;DHT22;10589;53.636;10.012;2023-07-22T07:29:18;16.70;99.90
20858;DHT22;10589;53.636;10.012;2023-07-22T07:31:43;17.00;99.90
20858;DHT22;10589;53.636;10.012;2023-07-22T07:34:09;17.00;99.90
20858;DHT22;10589;53.636;10.012;2023-07-22T07:36:34;17.00;99.90
20858;DHT22;10589;53.636;10.012;2023-07-22T07:39:00;17.00;99.90
20858;DHT22;10589;53.636;10.012;2023-07-22T07:41:26;17.00;99.90
20858;DHT22;10589;53.636;10.012;2023-07-22T07:43:52;17.10;99.90
20858;DHT22;10589;53.636;10.012;2023-07-22T07:46:21;17.30;99.90
20858;DHT22;10589;53.636;10.012;2023-07-22T07:48:49;17.50;99.90
20858;DHT22;10589;53.636;10.012;2023-07-22T07:51:16;17.60;99.90
20858;DHT22;10589;53.636;10.012;2023-07-22T07:53:42;17.90;99.90
20858;DHT22;10589;53.636;10.012;2023-07-22T07:56:10;18.20;99.90
20858;DHT22;10589;53.636;10.012;2023-07-22T07:58:36;18.10;99.90
20858;DHT22;10589;53.636;10.012;2023-07-22T08:01:01;18.20;99.90
20858;DHT22;10589;53.636;10.012;2023-07-22T08:03:27;18.20;99.90
20858;DHT22;10589;53.636;10.012;2023-07-22T08:05:52;18.10;99.90
20858;DHT22;10589;53.636;10.012;2023-07-22T08:08:18;18.50;99.90
20858;DHT22;10589;53.636;10.012;2023-07-22T08:10:44;18.50;99.90
20858;DHT22;10589;53.636;10.012;2023-07-22T08:13:10;18.70;99.90
20858;DHT22;10589;53.636;10.012;2023-07-22T08:15:35;18.50;99.90
20858;DHT22;10589;53.636;10.012;2023-07-22T08:18:01;18.40;99.90
20858;DHT22;10589;53.636;10.012;2023-07-22T08:20:27;18.40;99.90
20858;DHT22;10589;53.636;10.012;2023-07-22T08:22:52;18.40;99.90
20858;DHT22;10589;53.636;10.012;2023-07-22T08:25:18;18.50;99.90
20858;DHT22;10589;53.636;10.012;2023-07-22T08:27:43;18.70;99.90
20858;DHT22;10589;53.636;10.012;2023-07-22T08:30:11;18.90;99.90
20858;DHT22;10589;53.636;10.012;2023-07-22T08:32:36;19.10;99.90
20858;DHT22;10589;53.636;10.012;2023-07-22T08:35:02;18.80;99.90
20858;DHT22;10589;53.636;10.012;2023-07-22T08:37:28;18.50;99.90
20858;DHT22;10589;53.636;10.012;2023-07-22T08:39:54;18.60;99.90
20858;DHT22;10589;53.636;10.012;2023-07-22T08:42:20;18.60;99.90
20858;DHT22;10589;53.636;10.012;2023-07-22T08:44:48;18.80;99.90
20858;DHT22;10589;53.636;10.012;2023-07-22T08:47:16;18.90;99.90
20858;DHT22;10589;53.636;10.012;2023-07-22T08:49:48;18.70;99.90
20858;DHT22;10589;53.636;10.012;2023-07-22T08:52:16;18.70;99.90
20858;DHT22;10589;53.636;10.012;2023-07-22T08:54:42;18.80;99.90
20858;DHT22;10589;53.636;10.012;2023-07-22T08:57:09;18.90;99.90
20858;DHT22;10589;53.636;10.012;2023-07-22T08:59:35;18.90;99.90
20858;DHT22;10589;53.636;10.012;2023-07-22T09:02:01;19.10;99.90
20858;DHT22;10589;53.636;10.012;2023-07-22T09:04:27;19.30;99.90
20858;DHT22;10589;53.636;10.012;2023-07-22T09:06:54;19.30;99.90
20858;DHT22;10589;53.636;10.012;2023-07-22T09:09:21;19.30;99.90
20858;DHT22;10589;53.636;10.012;2023-07-22T09:11:48;19.30;99.90
20858;DHT22;10589;53.636;10.012;2023-07-22T09:14:15;19.20;99.90
20858;DHT22;10589;53.636;10.012;2023-07-22T09:16:43;19.30;99.90
20858;DHT22;10589;53.636;10.012;2023-07-22T09:19:08;19.50;99.90
20858;DHT22;10589;53.636;10.012;2023-07-22T09:21:35;19.60;99.90
20858;DHT22;10589;53.636;10.012;2023-07-22T09:24:23;19.70;99.90
20858;DHT22;10589;53.636;10.012;2023-07-22T09:26:50;19.40;99.90
20858;DHT22;10589;53.636;10.012;2023-07-22T09:29:16;19.40;99.90
20858;DHT22;10589;53.636;10.012;2023-07-22T09:31:53;19.60;99.90
20858;DHT22;10589;53.636;10.012;2023-07-22T09:34:19;19.70;99.90
20858;DHT22;10589;53.636;10.012;2023-07-22T09:36:58;19.80;99.90
20858;DHT22;10589;53.636;10.012;2023-07-22T09:39:27;19.80;99.90
20858;DHT22;10589;53.636;10.012;2023-07-22T09:41:52;19.80;99.90
20858;DHT22;10589;53.636;10.012;2023-07-22T09:44:18;19.90;99.90
20858;DHT22;10589;53.636;10.012;2023-07-22T09:46:50;19.90;99.90
20858;DHT22;10589;53.636;10.012;2023-07-22T09:49:17;20.10;99.90
20858;DHT22;10589;53.636;10.012;2023-07-22T09:51:43;20.40;99.90
20858;DHT22;10589;53.636;10.012;2023-07-22T09:54:09;20.40;99.90
20858;DHT22;10589;53.636;10.012;2023-07-22T09:56:46;20.50;99.90
20858;DHT22;10589;53.636;10.012;2023-07-22T09:59:12;20.60;99.90
20858;DHT22;10589;53.636;10.012;2023-07-22T10:01:39;20.50;99.90
20858;DHT22;10589;53.636;10.012;2023-07-22T10:04:06;20.60;99.90
20858;DHT22;10589;53.636;10.012;2023-07-22T10:06:32;20.60;99.90
20858;DHT22;10589;53.636;10.012;2023-07-22T10:09:03;20.50;99.90
20858;DHT22;10589;53.636;10.012;2023-07-22T10:11:39;20.40;99.90
20858;DHT22;10589;53.636;10.012;2023-07-22T10:14:05;20.50;99.90
20858;DHT22;10589;53.636;10.012;2023-07-22T10:16:31;20.80;99.90
20858;DHT22;10589;53.636;10.012;2023-07-22T10:18:58;21.00;99.90
20858;DHT22;10589;53.636;10.012;2023-07-22T10:21:25;21.30;99.90
20858;DHT22;10589;53.636;10.012;2023-07-22T10:23:51;21.30;99.90
20858;DHT22;10589;53.636;10.012;2023-07-22T10:26:17;21.10;99.90
20858;DHT22;10589;53.636;10.012;2023-07-22T10:28:45;21.10;99.90
20858;DHT22;10589;53.636;10.012;2023-07-22T10:31:11;21.20;99.90
20858;DHT22;10589;53.636;10.012;2023-07-22T10:33:38;20.90;99.90
20858;DHT22;10589;53.636;10.012;2023-07-22T10:36:08;20.70;99.90
20858;DHT22;10589;53.636;10.012;2023-07-22T10:38:35;20.80;99.90
20858;DHT22;10589;53.636;10.012;2023-07-22T10:41:04;20.90;99.90
20858;DHT22;10589;53.636;10.012;2023-07-22T10:43:36;21.00;99.90
20858;DHT22;10589;53.636;10.012;2023-07-22T10:46:12;21.10;99.90
20858;DHT22;10589;53.636;10.012;2023-07-22T10:48:42;21.10;99.90
20858;DHT22;10589;53.636;10.012;2023-07-22T10:51:10;21.20;99.90
20858;DHT22;10589;53.636;10.012;2023-07-22T10:53:46;21.20;99.90
20858;DHT22;10589;53.636;10.012;2023-07-22T10:56:23;21.20;99.90
20858;DHT22;10589;53.636;10.012;2023-07-22T11:06:59;22.00;99.90
20858;DHT22;10589;53.636;10.012;2023-07-22T11:12:03;21.90;99.90
20858;DHT22;10589;53.636;10.012;2023-07-22T11:14:52;21.90;99.90
20858;DHT22;10589;53.636;10.012;2023-07-22T11:17:18;21.80;99.90
20858;DHT22;10589;53.636;10.012;2023-07-22T11:19:52;21.90;99.90
20858;DHT22;10589;53.636;10.012;2023-07-22T11:22:18;21.90;99.90
20858;DHT22;10589;53.636;10.012;2023-07-22T11:24:45;21.80;99.90
20858;DHT22;10589;53.636;10.012;2023-07-22T11:27:12;21.70;99.90
20858;DHT22;10589;53.636;10.012;2023-07-22T11:29:38;21.80;99.90
20858;DHT22;10589;53.636;10.012;2023-07-22T11:32:06;22.00;99.90
20858;DHT22;10589;53.636;10.012;2023-07-22T11:34:33;22.00;99.90
20858;DHT22;10589;53.636;10.012;2023-07-22T11:37:01;21.90;99.90
20858;DHT22;10589;53.636;10.012;2023-07-22T11:39:27;22.20;99.90
20858;DHT22;10589;53.636;10.012;2023-07-22T11:41:59;22.40;99.90
20858;DHT22;10589;53.636;10.012;2023-07-22T11:44:31;22.40;99.90
20858;DHT22;10589;53.636;10.012;2023-07-22T11:47:02;22.40;99.90
20858;DHT22;10589;53.636;10.012;2023-07-22T11:49:36;22.50;99.90
20858;DHT22;10589;53.636;10.012;2023-07-22T11:52:11;22.60;99.90
20858;DHT22;10589;53.636;10.012;2023-07-22T11:54:42;22.80;99.90
20858;DHT22;10589;53.636;10.012;2023-07-22T11:57:21;23.10;99.90
20858;DHT22;10589;53.636;10.012;2023-07-22T11:59:48;23.40;99.90
20858;DHT22;10589;53.636;10.012;2023-07-22T12:02:15;23.70;99.90
20858;DHT22;10589;53.636;10.012;2023-07-22T12:04:42;24.00;99.90
20858;DHT22;10589;53.636;10.012;2023-07-22T12:07:21;24.30;99.90
20858;DHT22;10589;53.636;10.012;2023-07-22T12:09:49;24.00;99.90
20858;DHT22;10589;53.636;10.012;2023-07-22T12:12:14;23.90;99.90
20858;DHT22;10589;53.636;10.012;2023-07-22T12:14:41;24.10;99.90
20858;DHT22;10589;53.636;10.012;2023-07-22T12:17:08;24.60;99.90
20858;DHT22;10589;53.636;10.012;2023-07-22T12:19:34;24.40;99.90
20858;DHT22;10589;53.636;10.012;2023-07-22T12:22:00;24.40;99.90
20858;DHT22;10589;53.636;10.012;2023-07-22T12:24:27;24.00;99.90
20858;DHT22;10589;53.636;10.012;2023-07-22T12:26:53;23.70;99.90
20858;DHT22;10589;53.636;10.012;2023-07-22T12:29:18;23.60;99.90
20858;DHT22;10589;53.636;10.012;2023-07-22T12:31:44;23.50;99.90
20858;DHT22;10589;53.636;10.012;2023-07-22T12:34:09;23.30;99.90
20858;DHT22;10589;53.636;10.012;2023-07-22T12:36:35;22.50;99.90
20858;DHT22;10589;53.636;10.012;2023-07-22T12:39:00;22.20;99.90
20858;DHT22;10589;53.636;10.012;2023-07-22T12:41:26;21.80;99.90
20858;DHT22;10589;53.636;10.012;2023-07-22T12:43:52;21.40;99.90
20858;DHT22;10589;53.636;10.012;2023-07-22T12:46:18;21.20;99.90
20858;DHT22;10589;53.636;10.012;2023-07-22T12:48:43;20.90;99.90
20858;DHT22;10589;53.636;10.012;2023-07-22T12:51:09;20.10;99.90
20858;DHT22;10589;53.636;10.012;2023-07-22T12:53:35;19.10;99.90
20858;DHT22;10589;53.636;10.012;2023-07-22T12:56:00;18.10;99.90
20858;DHT22;10589;53.636;10.012;2023-07-22T12:58:28;17.60;99.90
20858;DHT22;10589;53.636;10.012;2023-07-22T13:00:54;17.40;99.90
20858;DHT22;10589;53.636;10.012;2023-07-22T13:03:20;17.30;99.90
20858;DHT22;10589;53.636;10.012;2023-07-22T13:05:45;17.30;99.90
20858;DHT22;10589;53.636;10.012;2023-07-22T13:08:11;17.30;99.90
20858;DHT22;10589;53.636;10.012;2023-07-22T13:10:37;17.20;99.90
20858;DHT22;10589;53.636;10.012;2023-07-22T13:13:04;17.20;99.90
20858;DHT22;10589;53.636;10.012;2023-07-22T13:15:29;17.10;99.90
20858;DHT22;10589;53.636;10.012;2023-07-22T13:17:55;17.10;99.90
20858;DHT22;10589;53.636;10.012;2023-07-22T13:20:20;17.10;99.90
20858;DHT22;10589;53.636;10.012;2023-07-22T13:22:46;17.10;99.90
20858;DHT22;10589;53.636;10.012;2023-07-22T13:25:12;17.20;99.90
20858;DHT22;10589;53.636;10.012;2023-07-22T13:27:37;17.30;99.90
20858;DHT22;10589;53.636;10.012;2023-07-22T13:30:09;17.50;99.90
20858;DHT22;10589;53.636;10.012;2023-07-22T13:32:35;17.80;99.90
20858;DHT22;10589;53.636;10.012;2023-07-22T13:35:00;17.90;99.90
20858;DHT22;10589;53.636;10.012;2023-07-22T13:37:26;17.90;99.90
20858;DHT22;10589;53.636;10.012;2023-07-22T13:39:51;17.80;99.90
20858;DHT22;10589;53.636;10.012;2023-07-22T13:42:18;17.80;99.90
20858;DHT22;10589;53.636;10.012;2023-07-22T13:44:44;17.90;99.90
20858;DHT22;10589;53.636;10.012;2023-07-22T13:47:09;17.90;99.90
20858;DHT22;10589;53.636;10.012;2023-07-22T13:49:35;18.00;99.90
20858;DHT22;10589;53.636;10.012;2023-07-22T13:52:01;18.00;99.90
20858;DHT22;10589;53.636;10.012;2023-07-22T13:54:28;17.80;99.90
20858;DHT22;10589;53.636;10.012;2023-07-22T13:56:53;17.70;99.90
20858;DHT22;10589;53.636;10.012;2023-07-22T13:59:19;17.50;99.90
20858;DHT22;10589;53.636;10.012;2023-07-22T14:01:44;17.40;99.90
20858;DHT22;10589;53.636;10.012;2023-07-22T14:04:10;17.50;99.90
20858;DHT22;10589;53.636;10.012;2023-07-22T14:06:35;17.60;99.90
20858;DHT22;10589;53.636;10.012;2023-07-22T14:09:01;17.70;99.90
20858;DHT22;10589;53.636;10.012;2023-07-22T14:11:27;17.70;99.90
20858;DHT22;10589;53.636;10.012;2023-07-22T14:13:52;17.70;99.90
20858;DHT22;10589;53.636;10.012;2023-07-22T14:16:18;18.00;99.90
20858;DHT22;10589;53.636;10.012;2023-07-22T14:18:44;18.10;99.90
20858;DHT22;10589;53.636;10.012;2023-07-22T14:21:11;18.40;99.90
20858;DHT22;10589;53.636;10.012;2023-07-22T14:23:37;18.70;99.90
20858;DHT22;10589;53.636;10.012;2023-07-22T14:26:04;18.70;99.90
20858;DHT22;10589;53.636;10.012;2023-07-22T14:28:29;18.50;99.90
20858;DHT22;10589;53.636;10.012;2023-07-22T14:30:55;18.90;99.90
20858;DHT22;10589;53.636;10.012;2023-07-22T14:33:20;19.40;99.90
20858;DHT22;10589;53.636;10.012;2023-07-22T14:35:46;20.00;99.90
20858;DHT22;10589;53.636;10.012;2023-07-22T14:38:11;20.60;99.90
20858;DHT22;10589;53.636;10.012;2023-07-22T14:40:37;21.20;99.90
20858;DHT22;10589;53.636;10.012;2023-07-22T14:43:03;21.20;99.90
20858;DHT22;10589;53.636;10.012;2023-07-22T14:45:29;21.00;99.90
20858;DHT22;10589;53.636;10.012;2023-07-22T14:47:55;20.60;99.90
20858;DHT22;10589;53.636;10.012;2023-07-22T14:50:20;20.20;99.90
20858;DHT22;10589;53.636;10.012;2023-07-22T14:52:46;20.20;99.90
20858;DHT22;10589;53.636;10.012;2023-07-22T14:55:12;19.80;99.90
20858;DHT22;10589;53.636;10.012;2023-07-22T14:57:37;19.60;99.90
20858;DHT22;10589;53.636;10.012;2023-07-22T15:00:03;19.30;99.90
20858;DHT22;10589;53.636;10.012;2023-07-22T15:02:29;18.90;99.90
20858;DHT22;10589;53.636;10.012;2023-07-22T15:04:55;18.60;99.90
20858;DHT22;10589;53.636;10.012;2023-07-22T15:07:22;18.60;99.90
20858;DHT22;10589;53.636;10.012;2023-07-22T15:09:48;18.40;99.90
20858;DHT22;10589;53.636;10.012;2023-07-22T15:12:14;18.30;99.90
20858;DHT22;10589;53.636;10.012;2023-07-22T15:14:40;18.30;99.90
20858;DHT22;10589;53.636;10.012;2023-07-22T15:17:05;18.30;99.90
20858;DHT22;10589;53.636;10.012;2023-07-22T15:19:31;18.30;99.90
20858;DHT22;10589;53.636;10.012;2023-07-22T15:21:57;18.20;99.90
20858;DHT22;10589;53.636;10.012;2023-07-22T15:24:22;18.10;99.90
20858;DHT22;10589;53.636;10.012;2023-07-22T15:26:48;18.00;99.90
20858;DHT22;10589;53.636;10.012;2023-07-22T15:29:14;18.10;99.90
20858;DHT22;10589;53.636;10.012;2023-07-22T15:31:39;18.40;99.90
20858;DHT22;10589;53.636;10.012;2023-07-22T15:34:05;18.40;99.90
20858;DHT22;10589;53.636;10.012;2023-07-22T15:36:30;18.30;99.90
20858;DHT22;10589;53.636;10.012;2023-07-22T15:38:56;18.20;99.90
20858;DHT22;10589;53.636;10.012;2023-07-22T15:41:22;18.00;99.90
20858;DHT22;10589;53.636;10.012;2023-07-22T15:43:47;18.10;99.90
20858;DHT22;10589;53.636;10.012;2023-07-22T15:46:13;18.00;99.90
20858;DHT22;10589;53.636;10.012;2023-07-22T15:48:38;17.90;99.90
20858;DHT22;10589;53.636;10.012;2023-07-22T15:51:04;17.70;99.90
20858;DHT22;10589;53.636;10.012;2023-07-22T15:53:30;17.70;99.90
20858;DHT22;10589;53.636;10.012;2023-07-22T15:55:55;17.40;99.90
20858;DHT22;10589;53.636;10.012;2023-07-22T15:58:21;17.30;99.90
20858;DHT22;10589;53.636;10.012;2023-07-22T16:00:47;17.20;99.90
20858;DHT22;10589;53.636;10.012;2023-07-22T16:03:13;17.10;99.90
20858;DHT22;10589;53.636;10.012;2023-07-22T16:05:40;17.10;99.90
20858;DHT22;10589;53.636;10.012;2023-07-22T16:08:05;17.20;99.90
20858;DHT22;10589;53.636;10.012;2023-07-22T16:10:34;17.20;99.90
20858;DHT22;10589;53.636;10.012;2023-07-22T16:13:00;17.20;99.90
20858;DHT22;10589;53.636;10.012;2023-07-22T16:15:26;17.10;99.90
20858;DHT22;10589;53.636;10.012;2023-07-22T16:17:51;17.10;99.90
20858;DHT22;10589;53.636;10.012;2023-07-22T16:20:17;17.10;99.90
20858;DHT22;10589;53.636;10.012;2023-07-22T16:22:44;17.00;99.90
20858;DHT22;10589;53.636;10.012;2023-07-22T16:25:10;16.90;99.90
20858;DHT22;10589;53.636;10.012;2023-07-22T16:27:37;16.70;99.90
20858;DHT22;10589;53.636;10.012;2023-07-22T16:30:03;16.60;99.90
20858;DHT22;10589;53.636;10.012;2023-07-22T16:32:29;16.30;99.90
20858;DHT22;10589;53.636;10.012;2023-07-22T16:34:54;16.10;99.90
20858;DHT22;10589;53.636;10.012;2023-07-22T16:37:20;15.90;99.90
20858;DHT22;10589;53.636;10.012;2023-07-22T16:39:45;15.80;99.90
20858;DHT22;10589;53.636;10.012;2023-07-22T16:42:11;15.60;99.90
20858;DHT22;10589;53.636;10.012;2023-07-22T16:44:37;15.50;99.90
20858;DHT22;10589;53.636;10.012;2023-07-22T16:47:02;15.50;99.90
20858;DHT22;10589;53.636;10.012;2023-07-22T16:49:28;15.50;99.90
20858;DHT22;10589;53.636;10.012;2023-07-22T16:51:54;15.50;99.90
20858;DHT22;10589;53.636;10.012;2023-07-22T16:54:19;15.50;99.90
20858;DHT22;10589;53.636;10.012;2023-07-22T16:56:45;15.50;99.90
20858;DHT22;10589;53.636;10.012;2023-07-22T16:59:11;15.60;99.90
20858;DHT22;10589;53.636;10.012;2023-07-22T17:01:36;15.50;99.90
20858;DHT22;10589;53.636;10.012;2023-07-22T17:04:04;15.40;99.90
20858;DHT22;10589;53.636;10.012;2023-07-22T17:06:30;15.40;99.90
20858;DHT22;10589;53.636;10.012;2023-07-22T17:08:56;15.40;99.90
20858;DHT22;10589;53.636;10.012;2023-07-22T17:11:21;15.40;99.90
20858;DHT22;10589;53.636;10.012;2023-07-22T17:13:47;15.40;99.90
20858;DHT22;10589;53.636;10.012;2023-07-22T17:16:13;15.40;99.90
20858;DHT22;10589;53.636;10.012;2023-07-22T17:18:38;15.40;99.90
20858;DHT22;10589;53.636;10.012;2023-07-22T17:21:04;15.40;99.90
20858;DHT22;10589;53.636;10.012;2023-07-22T17:23:30;15.40;99.90
20858;DHT22;10589;53.636;10.012;2023-07-22T17:25:55;15.50;99.90
20858;DHT22;10589;53.636;10.012;2023-07-22T17:28:21;15.40;99.90
20858;DHT22;10589;53.636;10.012;2023-07-22T17:30:46;15.20;99.90
20858;DHT22;10589;53.636;10.012;2023-07-22T17:33:13;15.20;99.90
20858;DHT22;10589;53.636;10.012;2023-07-22T17:35:38;15.20;99.90
20858;DHT22;10589;53.636;10.012;2023-07-22T17:38:04;15.10;99.90
20858;DHT22;10589;53.636;10.012;2023-07-22T17:40:30;15.10;99.90
20858;DHT22;10589;53.636;10.012;2023-07-22T17:42:56;15.10;99.90
20858;DHT22;10589;53.636;10.012;2023-07-22T17:45:22;15.10;99.90
20858;DHT22;10589;53.636;10.012;2023-07-22T17:47:47;15.20;99.90
20858;DHT22;10589;53.636;10.012;2023-07-22T17:50:14;15.20;99.90
20858;DHT22;10589;53.636;10.012;2023-07-22T17:52:40;15.10;99.90
20858;DHT22;10589;53.636;10.012;2023-07-22T17:55:06;15.00;99.90
20858;DHT22;10589;53.636;10.012;2023-07-22T17:57:32;15.10;99.90
20858;DHT22;10589;53.636;10.012;2023-07-22T17:59:58;15.20;99.90
20858;DHT22;10589;53.636;10.012;2023-07-22T18:02:24;15.20;99.90
20858;DHT22;10589;53.636;10.012;2023-07-22T18:04:49;15.10;99.90
20858;DHT22;10589;53.636;10.012;2023-07-22T18:07:15;15.10;99.90
20858;DHT22;10589;53.636;10.012;2023-07-22T18:09:40;15.20;99.90
20858;DHT22;10589;53.636;10.012;2023-07-22T18:12:07;15.10;99.90
20858;DHT22;10589;53.636;10.012;2023-07-22T18:14:37;15.20;99.90
20858;DHT22;10589;53.636;10.012;2023-07-22T18:17:02;15.20;99.90
20858;DHT22;10589;53.636;10.012;2023-07-22T18:19:28;15.10;99.90
20858;DHT22;10589;53.636;10.012;2023-07-22T18:21:54;15.10;99.90
20858;DHT22;10589;53.636;10.012;2023-07-22T18:24:20;15.10;99.90
20858;DHT22;10589;53.636;10.012;2023-07-22T18:26:46;15.10;99.90
20858;DHT22;10589;53.636;10.012;2023-07-22T18:29:12;15.00;99.90
20858;DHT22;10589;53.636;10.012;2023-07-22T18:31:37;15.00;99.90
20858;DHT22;10589;53.636;10.012;2023-07-22T18:34:03;15.00;99.90
20858;DHT22;10589;53.636;10.012;2023-07-22T18:36:29;15.00;99.90
20858;DHT22;10589;53.636;10.012;2023-07-22T18:38:54;15.00;99.90
20858;DHT22;10589;53.636;10.012;2023-07-22T18:41:21;15.00;99.90
20858;DHT22;10589;53.636;10.012;2023-07-22T18:43:47;14.90;99.90
20858;DHT22;10589;53.636;10.012;2023-07-22T18:46:18;14.90;99.90
20858;DHT22;10589;53.636;10.012;2023-07-22T18:48:48;14.80;99.90
20858;DHT22;10589;53.636;10.012;2023-07-22T18:51:14;14.80;99.90
20858;DHT22;10589;53.636;10.012;2023-07-22T18:53:40;14.80;99.90
20858;DHT22;10589;53.636;10.012;2023-07-22T18:56:06;14.80;99.90
20858;DHT22;10589;53.636;10.012;2023-07-22T18:58:35;14.80;99.90
20858;DHT22;10589;53.636;10.012;2023-07-22T19:01:01;14.80;99.90
20858;DHT22;10589;53.636;10.012;2023-07-22T19:03:27;14.80;99.90
20858;DHT22;10589;53.636;10.012;2023-07-22T19:05:52;14.80;99.90